Terminal Aerodrome Forecast
Issued by NWS

Home | Current Version | Previous Version | Text Only | Print | Product List | Glossary On
Versions: 1 2 3 4 5 6 7 8 9 10 11 12 13 14 15
000
FTUS45 KABQ 032342
TAFTCC
TAF
KTCC 032342Z 0400/0424 20007KT P6SM SCT070 BKN200
     FM040200 21007KT P6SM VCSH SCT070 BKN150
     FM040500 22006KT P6SM BKN100
     FM041800 22015G25KT P6SM FEW090
     FM042300 21015G25KT P6SM SCT090 BKN200=

USA.gov is the U.S. government's official web portal to all federal, state and local government web resources and services.